Time;durP1;ratioP1;P1;durP2;ratioP2;P2;SDS_P1;SDS_P2;PMS_P1;PMS_P2;Temp;Humidity;BMP_temperature;BMP_pressure;BME280_temperature;BME280_humidity;BME280_pressure;Samples;Min_cycle;Max_cycle;Signal;HPM_P1;HPM_P2
2023/07/27 00:02:16;;;;;;;1.27;0.90;;;23.00;48.60;;;;;;5052777;28;20032;-82
2023/07/27 00:04:41;;;;;;;1.60;1.00;;;23.00;48.80;;;;;;5053346;28;20384;-82
2023/07/27 00:07:07;;;;;;;1.20;0.90;;;23.00;48.80;;;;;;5052881;28;20476;-82
2023/07/27 00:09:33;;;;;;;1.95;0.98;;;23.00;48.70;;;;;;5053020;28;20025;-82
2023/07/27 00:11:58;;;;;;;1.15;1.00;;;23.00;48.80;;;;;;5052696;28;20021;-82
2023/07/27 00:14:25;;;;;;;1.92;1.25;;;23.70;49.30;;;;;;5052604;28;20179;-82
2023/07/27 00:16:50;;;;;;;1.52;1.00;;;22.90;48.80;;;;;;5052747;28;20056;-83
2023/07/27 00:19:16;;;;;;;1.13;1.02;;;23.00;48.90;;;;;;5052664;28;20029;-79
2023/07/27 00:21:42;;;;;;;1.35;0.85;;;22.90;48.90;;;;;;5052656;28;20467;-80
2023/07/27 00:24:07;;;;;;;1.67;1.00;;;22.90;48.90;;;;;;5052663;28;20107;-80
2023/07/27 00:26:33;;;;;;;2.55;0.90;;;22.90;48.80;;;;;;5052577;28;20664;-80
2023/07/27 00:28:59;;;;;;;1.40;0.80;;;23.00;49.00;;;;;;5052412;28;20036;-80
2023/07/27 00:31:24;;;;;;;0.90;0.80;;;23.00;49.00;;;;;;5052411;28;20048;-80
2023/07/27 00:33:50;;;;;;;1.38;1.00;;;23.00;49.00;;;;;;5052840;28;20032;-80
2023/07/27 00:36:16;;;;;;;2.28;0.82;;;22.90;48.90;;;;;;5051201;28;20053;-80
2023/07/27 00:38:42;;;;;;;1.17;1.02;;;23.00;49.10;;;;;;5052636;28;20104;-80
2023/07/27 00:41:08;;;;;;;1.05;0.70;;;22.90;48.90;;;;;;5052544;28;20422;-80
2023/07/27 00:43:34;;;;;;;1.48;1.05;;;22.90;49.10;;;;;;5052214;28;20147;-80
2023/07/27 00:46:00;;;;;;;0.95;0.75;;;22.90;49.20;;;;;;5052223;28;20028;-80
2023/07/27 00:48:26;;;;;;;1.35;0.82;;;22.90;49.00;;;;;;5052064;28;20021;-80
2023/07/27 00:50:54;;;;;;;1.13;0.90;;;22.90;49.20;;;;;;5051982;28;20116;-80
2023/07/27 00:53:20;;;;;;;1.00;0.80;;;22.90;48.90;;;;;;5052070;28;20029;-79
2023/07/27 00:55:46;;;;;;;1.90;0.90;;;22.80;49.00;;;;;;5051987;28;20040;-80
2023/07/27 00:58:13;;;;;;;1.23;1.10;;;22.90;49.00;;;;;;5052002;28;20027;-80
2023/07/27 01:00:42;;;;;;;1.10;0.70;;;22.80;49.20;;;;;;5052183;28;20049;-80
2023/07/27 01:03:08;;;;;;;1.42;1.00;;;22.80;49.00;;;;;;5052000;28;20021;-80
2023/07/27 01:05:36;;;;;;;1.77;1.15;;;22.80;49.60;;;;;;5050835;28;20421;-80
2023/07/27 01:08:02;;;;;;;1.35;0.82;;;22.80;49.10;;;;;;5052067;28;20072;-80
2023/07/27 01:10:35;;;;;;;0.85;0.77;;;22.80;49.00;;;;;;5051964;28;20498;-79
2023/07/27 01:13:12;;;;;;;0.95;0.70;;;22.80;48.90;;;;;;5051936;28;20025;-80
2023/07/27 01:15:44;;;;;;;0.75;0.70;;;22.80;49.10;;;;;;5050438;28;20036;-80
2023/07/27 01:18:26;;;;;;;1.20;0.80;;;22.80;49.00;;;;;;5051574;28;20436;-80
2023/07/27 01:20:55;;;;;;;0.57;0.57;;;22.80;49.00;;;;;;5051808;28;20029;-80
2023/07/27 01:23:48;;;;;;;1.10;0.88;;;22.70;48.90;;;;;;5051552;28;20021;-80
2023/07/27 01:26:44;;;;;;;1.00;0.80;;;22.70;48.80;;;;;;5051584;28;20033;-80
2023/07/27 01:29:38;;;;;;;0.65;0.65;;;22.70;49.10;;;;;;5051560;28;20021;-80
2023/07/27 01:32:08;;;;;;;1.00;0.90;;;22.70;48.90;;;;;;5051359;28;20037;-80
2023/07/27 01:34:37;;;;;;;1.17;0.82;;;22.70;48.90;;;;;;5051465;28;20033;-80
2023/07/27 01:37:04;;;;;;;1.38;0.90;;;22.70;48.90;;;;;;5050159;28;20047;-80
2023/07/27 01:39:35;;;;;;;1.67;1.05;;;22.70;49.00;;;;;;5051828;28;20029;-80
2023/07/27 01:42:02;;;;;;;1.55;0.90;;;22.70;48.90;;;;;;5051975;28;20023;-80
2023/07/27 01:44:31;;;;;;;1.08;0.75;;;22.70;49.50;;;;;;5051377;28;20052;-80
2023/07/27 01:46:59;;;;;;;1.10;0.98;;;22.60;49.00;;;;;;5051392;28;20406;-80
2023/07/27 01:49:27;;;;;;;1.15;0.82;;;22.70;48.90;;;;;;5051578;28;20093;-80
2023/07/27 01:51:54;;;;;;;1.20;0.70;;;22.60;49.10;;;;;;5051410;28;20420;-80
2023/07/27 01:54:20;;;;;;;0.70;0.70;;;22.60;49.00;;;;;;5051275;28;20124;-80
2023/07/27 01:56:47;;;;;;;0.90;0.60;;;22.60;49.10;;;;;;5050297;28;20032;-80
2023/07/27 01:59:14;;;;;;;0.60;0.60;;;22.60;49.00;;;;;;5051761;28;20032;-79
2023/07/27 02:01:42;;;;;;;1.10;0.70;;;22.60;49.00;;;;;;5051466;28;20036;-80
2023/07/27 02:04:09;;;;;;;1.40;0.60;;;22.60;49.00;;;;;;5051524;28;20045;-79
2023/07/27 02:06:35;;;;;;;1.05;0.65;;;22.80;71.90;;;;;;5051611;28;20535;-79
2023/07/27 02:09:01;;;;;;;0.93;0.65;;;22.60;49.10;;;;;;5051476;28;20070;-79
2023/07/27 02:11:28;;;;;;;0.75;0.55;;;22.60;49.20;;;;;;5051532;28;20502;-79
2023/07/27 02:14:04;;;;;;;0.50;0.50;;;22.60;49.00;;;;;;5051149;28;20511;-79
2023/07/27 02:16:50;;;;;;;0.98;0.60;;;22.50;49.10;;;;;;5051484;28;20499;-79
2023/07/27 02:19:21;;;;;;;1.33;0.80;;;22.50;49.10;;;;;;5051365;28;20036;-79
2023/07/27 02:21:47;;;;;;;0.80;0.60;;;22.50;49.20;;;;;;5052568;28;20013;-79
2023/07/27 02:24:14;;;;;;;0.70;0.63;;;22.50;49.10;;;;;;5055091;28;20104;-79
2023/07/27 02:26:42;;;;;;;1.10;0.60;;;22.50;49.10;;;;;;5055653;28;20027;-79
2023/07/27 02:29:08;;;;;;;1.02;0.70;;;22.50;49.10;;;;;;5054780;28;20029;-79
2023/07/27 02:31:33;;;;;;;1.67;0.80;;;22.50;49.20;;;;;;5053363;28;20025;-79
2023/07/27 02:33:59;;;;;;;0.50;0.50;;;22.50;49.40;;;;;;5054566;28;20250;-79
2023/07/27 02:36:24;;;;;;;1.63;0.85;;;22.40;49.20;;;;;;5054571;28;20071;-79
2023/07/27 02:38:50;;;;;;;0.70;0.70;;;22.40;49.20;;;;;;5054543;28;20029;-79
2023/07/27 02:41:16;;;;;;;0.80;0.60;;;22.40;49.30;;;;;;5054583;28;20032;-79
2023/07/27 02:43:41;;;;;;;2.17;0.60;;;22.40;49.40;;;;;;5054545;28;20044;-79
2023/07/27 02:46:08;;;;;;;1.00;0.70;;;22.40;49.20;;;;;;5054470;28;20032;-79
2023/07/27 02:48:35;;;;;;;0.90;0.60;;;22.40;49.30;;;;;;5054640;28;20116;-79
2023/07/27 02:51:01;;;;;;;0.88;0.77;;;22.40;49.30;;;;;;5054653;28;20119;-79
2023/07/27 02:53:27;;;;;;;1.33;0.68;;;22.40;49.20;;;;;;5054240;28;20032;-79
2023/07/27 02:55:56;;;;;;;2.00;0.98;;;22.40;49.50;;;;;;5054733;28;20041;-79
2023/07/27 02:58:23;;;;;;;0.80;0.80;;;22.40;49.50;;;;;;5054523;28;20021;-79
2023/07/27 03:01:00;;;;;;;0.60;0.60;;;22.40;49.40;;;;;;5054132;28;20107;-79
2023/07/27 03:03:26;;;;;;;1.05;0.73;;;22.40;49.40;;;;;;5054131;28;20024;-79
2023/07/27 03:05:59;;;;;;;0.75;0.75;;;22.40;49.40;;;;;;5054145;28;20029;-79
2023/07/27 03:08:26;;;;;;;1.80;0.93;;;22.30;49.50;;;;;;5054080;28;20071;-79
2023/07/27 03:10:52;;;;;;;1.23;0.70;;;22.30;49.40;;;;;;5053940;28;20094;-79
2023/07/27 03:13:17;;;;;;;0.63;0.63;;;22.30;49.50;;;;;;5053775;28;20467;-79
2023/07/27 03:15:43;;;;;;;0.73;0.70;;;22.30;49.40;;;;;;5053846;28;20039;-79
2023/07/27 03:18:08;;;;;;;0.63;0.63;;;22.30;49.60;;;;;;5053915;28;20020;-79
2023/07/27 03:20:41;;;;;;;0.70;0.70;;;22.30;49.50;;;;;;5053756;28;20480;-79
2023/07/27 03:23:11;;;;;;;0.77;0.70;;;22.30;49.40;;;;;;5053769;28;20032;-79
2023/07/27 03:25:37;;;;;;;;;;;22.50;49.50;;;;;;5054132;28;20056;-79
2023/07/27 03:28:08;;;;;;;1.27;0.73;;;22.30;50.20;;;;;;5053545;28;19975;-78
2023/07/27 03:30:34;;;;;;;;;;;22.30;49.60;;;;;;5054157;28;20021;-79
2023/07/27 03:33:00;;;;;;;0.98;0.82;;;22.30;49.60;;;;;;5053737;28;19912;-79
2023/07/27 03:35:25;;;;;;;1.20;0.90;;;22.20;49.50;;;;;;5053825;28;20033;-79
2023/07/27 03:37:51;;;;;;;0.70;0.60;;;22.20;49.70;;;;;;5053751;28;20029;-79
2023/07/27 03:40:18;;;;;;;1.77;0.80;;;22.20;49.80;;;;;;5053996;28;20399;-79
2023/07/27 03:42:44;;;;;;;1.30;0.90;;;22.20;49.60;;;;;;5053407;28;20039;-79
2023/07/27 03:45:10;;;;;;;0.93;0.73;;;22.20;49.60;;;;;;5053240;28;20103;-79
2023/07/27 03:47:36;;;;;;;0.93;0.85;;;22.20;49.60;;;;;;5053141;28;20096;-79
2023/07/27 03:50:01;;;;;;;0.68;0.68;;;22.20;49.70;;;;;;5053216;28;20037;-79
2023/07/27 03:52:27;;;;;;;0.93;0.82;;;22.20;49.70;;;;;;5052452;28;20025;-79
2023/07/27 03:54:52;;;;;;;1.25;0.90;;;22.20;49.70;;;;;;5053023;28;20037;-80
2023/07/27 03:57:18;;;;;;;0.80;0.80;;;22.20;49.80;;;;;;5053089;28;20021;-79
2023/07/27 03:59:44;;;;;;;0.82;0.60;;;22.10;49.70;;;;;;5053330;28;20041;-79
2023/07/27 04:02:09;;;;;;;0.88;0.65;;;22.10;49.90;;;;;;5051966;28;20029;-80
2023/07/27 04:04:35;;;;;;;1.40;0.75;;;22.10;49.80;;;;;;5052336;28;20433;-80
2023/07/27 04:07:01;;;;;;;0.70;0.70;;;22.10;50.00;;;;;;5053813;28;20021;-79
2023/07/27 04:09:26;;;;;;;0.75;0.50;;;22.10;49.80;;;;;;5035176;28;20025;-80
2023/07/27 04:11:52;;;;;;;1.17;0.70;;;22.10;49.90;;;;;;5053161;28;20491;-80
2023/07/27 04:14:18;;;;;;;0.50;0.50;;;22.10;49.90;;;;;;5052833;28;20507;-80
2023/07/27 04:16:44;;;;;;;1.05;0.70;;;22.10;49.80;;;;;;5052932;28;20100;-80
2023/07/27 04:19:09;;;;;;;1.02;0.80;;;22.10;49.80;;;;;;5052847;28;20048;-80
2023/07/27 04:21:35;;;;;;;0.50;0.50;;;22.10;49.80;;;;;;5053602;28;20024;-79
2023/07/27 04:24:02;;;;;;;0.40;0.40;;;22.10;49.90;;;;;;5052876;28;20036;-79
2023/07/27 04:26:28;;;;;;;0.70;0.70;;;22.10;49.80;;;;;;5052719;28;20020;-79
2023/07/27 04:28:54;;;;;;;1.00;0.68;;;22.10;49.90;;;;;;5051324;28;20479;-80
2023/07/27 04:31:23;;;;;;;0.88;0.73;;;22.10;49.90;;;;;;5052904;28;20379;-80
2023/07/27 04:33:48;;;;;;;0.60;0.60;;;22.10;50.00;;;;;;5052372;28;20021;-80
2023/07/27 04:36:14;;;;;;;1.00;0.80;;;22.10;49.90;;;;;;5052550;28;20052;-80
2023/07/27 04:38:39;;;;;;;1.10;1.00;;;22.00;50.00;;;;;;5052628;28;20383;-80
2023/07/27 04:41:05;;;;;;;1.40;0.88;;;22.00;49.90;;;;;;5052839;28;20540;-80
2023/07/27 04:43:32;;;;;;;2.17;1.10;;;22.00;50.00;;;;;;5052509;28;20082;-80
2023/07/27 04:45:58;;;;;;;1.63;1.52;;;22.00;50.10;;;;;;5052057;28;20040;-80
2023/07/27 04:48:24;;;;;;;2.10;2.00;;;22.00;50.00;;;;;;5052067;28;20033;-80
2023/07/27 04:50:50;;;;;;;2.50;2.40;;;22.00;50.10;;;;;;5052579;28;20021;-80
2023/07/27 04:53:16;;;;;;;3.80;3.50;;;22.00;50.20;;;;;;5052102;28;20031;-80
2023/07/27 04:55:42;;;;;;;4.95;4.65;;;22.00;50.50;;;;;;5052233;28;20083;-80
2023/07/27 04:58:08;;;;;;;6.68;6.28;;;22.00;50.40;;;;;;5051078;28;20017;-80
2023/07/27 05:00:34;;;;;;;8.45;7.82;;;22.00;50.60;;;;;;5052154;28;20085;-80
2023/07/27 05:03:00;;;;;;;10.20;9.40;;;22.00;50.60;;;;;;5050753;28;20352;-80
2023/07/27 05:05:25;;;;;;;12.10;11.20;;;22.00;50.70;;;;;;5052023;28;20032;-80
2023/07/27 05:07:51;;;;;;;14.88;13.77;;;22.00;50.70;;;;;;5051881;28;20064;-80
2023/07/27 05:10:16;;;;;;;17.13;15.90;;;21.90;50.70;;;;;;5050753;28;20036;-80
2023/07/27 05:12:42;;;;;;;18.45;17.05;;;21.90;50.70;;;;;;5051918;28;20052;-80
2023/07/27 05:15:08;;;;;;;19.67;18.13;;;22.00;50.90;;;;;;5051849;28;20045;-80
2023/07/27 05:17:34;;;;;;;22.60;20.90;;;22.00;51.00;;;;;;5052480;28;20102;-81
2023/07/27 05:20:00;;;;;;;22.25;20.55;;;21.90;51.00;;;;;;5050431;28;20565;-80
2023/07/27 05:22:25;;;;;;;23.92;22.13;;;21.90;51.00;;;;;;5052081;28;20021;-80
2023/07/27 05:24:51;;;;;;;25.90;23.90;;;21.90;51.10;;;;;;5051959;28;20059;-80
2023/07/27 05:27:17;;;;;;;28.08;25.88;;;22.00;51.80;;;;;;5051989;28;20613;-80
2023/07/27 05:29:42;;;;;;;28.13;25.92;;;21.90;51.20;;;;;;5051865;28;20083;-80
2023/07/27 05:32:08;;;;;;;31.23;28.77;;;21.90;51.20;;;;;;5051582;28;20393;-81
2023/07/27 05:34:34;;;;;;;30.02;27.63;;;21.90;51.30;;;;;;5050275;28;20033;-81
2023/07/27 05:37:00;;;;;;;30.25;27.85;;;21.90;51.30;;;;;;5051611;28;20025;-81
2023/07/27 05:39:28;;;;;;;30.00;27.70;;;21.90;51.40;;;;;;5051699;28;20432;-81
2023/07/27 05:41:54;;;;;;;29.17;26.77;;;21.60;51.30;;;;;;5051717;28;20025;-80
2023/07/27 05:44:20;;;;;;;29.38;27.08;;;21.90;51.40;;;;;;5051581;28;20454;-80
2023/07/27 05:46:47;;;;;;;28.55;26.25;;;21.90;51.50;;;;;;5052433;28;20090;-81
2023/07/27 05:49:13;;;;;;;30.05;27.65;;;21.90;51.50;;;;;;5051880;28;20413;-81
2023/07/27 05:51:39;;;;;;;29.27;26.98;;;21.90;51.40;;;;;;5052008;28;20024;-81
2023/07/27 05:54:05;;;;;;;28.35;26.15;;;21.90;51.40;;;;;;5051586;28;20029;-80
2023/07/27 05:56:31;;;;;;;27.40;25.20;;;21.90;51.50;;;;;;5052400;28;20084;-80
2023/07/27 05:58:57;;;;;;;27.88;25.58;;;21.90;51.60;;;;;;5055358;28;20487;-80
2023/07/27 06:01:23;;;;;;;25.52;23.45;;;21.80;74.90;;;;;;5054963;28;20102;-80
2023/07/27 06:03:48;;;;;;;25.25;23.15;;;21.90;51.70;;;;;;5054996;28;20112;-80
2023/07/27 06:06:15;;;;;;;26.27;24.08;;;21.90;51.80;;;;;;5053704;28;20480;-81
2023/07/27 06:08:41;;;;;;;23.23;21.33;;;21.90;51.70;;;;;;5054927;28;20017;-82
2023/07/27 06:11:09;;;;;;;23.83;21.85;;;21.90;51.80;;;;;;5054919;28;20479;-82
2023/07/27 06:13:36;;;;;;;21.05;19.35;;;21.90;52.00;;;;;;5054859;28;20114;-81
2023/07/27 06:16:02;;;;;;;19.98;18.38;;;21.90;52.50;;;;;;5055754;28;20468;-80
2023/07/27 06:18:28;;;;;;;17.80;16.38;;;21.90;52.30;;;;;;5055071;28;20025;-79
2023/07/27 06:20:56;;;;;;;18.13;16.73;;;21.90;52.30;;;;;;5054733;28;20094;-78
2023/07/27 06:23:22;;;;;;;17.48;16.08;;;21.90;52.40;;;;;;5054618;28;20028;-79
2023/07/27 06:25:49;;;;;;;17.95;16.55;;;21.90;52.40;;;;;;5054874;28;20027;-80
2023/07/27 06:28:15;;;;;;;16.98;15.57;;;21.80;52.40;;;;;;5054889;28;20044;-78
2023/07/27 06:30:41;;;;;;;15.50;14.30;;;21.80;52.40;;;;;;5054421;28;20495;-78
2023/07/27 06:33:07;;;;;;;15.25;13.98;;;21.90;52.60;;;;;;5054563;28;20044;-78
2023/07/27 06:35:34;;;;;;;14.88;13.63;;;21.80;75.70;;;;;;5054530;28;20425;-80
2023/07/27 06:37:59;;;;;;;12.90;11.90;;;21.80;52.50;;;;;;5054456;28;20021;-82
2023/07/27 06:40:26;;;;;;;13.65;12.55;;;21.80;52.60;;;;;;5054394;28;20075;-80
2023/07/27 06:42:51;;;;;;;11.77;10.88;;;21.80;52.70;;;;;;5054319;28;20064;-82
2023/07/27 06:45:17;;;;;;;12.27;11.27;;;21.90;52.70;;;;;;5054337;28;20036;-82
2023/07/27 06:47:43;;;;;;;11.52;10.63;;;21.80;52.60;;;;;;5054280;28;20025;-80
2023/07/27 06:50:09;;;;;;;10.18;9.38;;;21.80;52.70;;;;;;5054096;28;20029;-80
2023/07/27 06:52:35;;;;;;;9.93;9.13;;;21.90;52.80;;;;;;5054197;28;20025;-78
2023/07/27 06:55:00;;;;;;;9.35;8.65;;;21.90;53.00;;;;;;5052618;28;20506;-74
2023/07/27 06:57:26;;;;;;;9.35;8.65;;;21.80;52.70;;;;;;5054029;28;20025;-85
2023/07/27 06:59:52;;;;;;;8.60;7.95;;;21.80;52.80;;;;;;5054676;28;20029;-80
2023/07/27 07:02:18;;;;;;;7.80;7.20;;;21.80;52.90;;;;;;5055231;28;20029;-83
2023/07/27 07:04:45;;;;;;;8.02;7.43;;;21.80;53.10;;;;;;5054578;28;20032;-82
2023/07/27 07:07:11;;;;;;;7.43;6.93;;;21.80;53.10;;;;;;5053789;28;20017;-84
2023/07/27 07:09:38;;;;;;;7.35;6.60;;;21.90;53.20;;;;;;5053975;28;20025;-84
2023/07/27 07:12:05;;;;;;;6.50;6.00;;;21.80;53.30;;;;;;5054146;28;20057;-82
2023/07/27 07:14:31;;;;;;;6.05;5.63;;;21.80;53.10;;;;;;5052355;28;20045;-81
2023/07/27 07:16:57;;;;;;;5.75;5.32;;;21.80;53.50;;;;;;5052444;28;20447;-81
2023/07/27 07:19:23;;;;;;;5.07;4.70;;;21.80;53.40;;;;;;5053703;28;20487;-80
2023/07/27 07:21:49;;;;;;;4.80;4.50;;;21.80;53.40;;;;;;5053014;28;20075;-80
2023/07/27 07:24:15;;;;;;;4.75;4.45;;;21.90;53.50;;;;;;5053531;28;20021;-81
2023/07/27 07:26:42;;;;;;;4.20;3.90;;;21.80;53.60;;;;;;5053574;28;20048;-80
2023/07/27 07:29:08;;;;;;;3.70;3.50;;;21.80;53.50;;;;;;5053770;28;20044;-83
2023/07/27 07:31:33;;;;;;;3.05;2.85;;;21.80;53.60;;;;;;5053268;28;20059;-80
2023/07/27 07:33:59;;;;;;;3.40;3.17;;;21.80;54.00;;;;;;5053370;28;20514;-81
2023/07/27 07:36:28;;;;;;;3.55;2.78;;;21.80;53.70;;;;;;5053254;28;20036;-79
2023/07/27 07:38:53;;;;;;;2.88;2.67;;;21.80;53.70;;;;;;5053058;28;20029;-79
2023/07/27 07:41:19;;;;;;;3.53;2.60;;;21.80;53.90;;;;;;5052955;28;20455;-80
2023/07/27 07:43:45;;;;;;;2.08;1.98;;;21.90;53.90;;;;;;5052938;28;20029;-83
2023/07/27 07:46:11;;;;;;;2.30;2.05;;;21.90;54.00;;;;;;5053172;28;20537;-84
2023/07/27 07:48:38;;;;;;;1.92;1.83;;;21.80;54.10;;;;;;5053598;28;20112;-82
2023/07/27 07:51:14;;;;;;;2.10;1.95;;;21.80;54.20;;;;;;5053160;28;20039;-85
2023/07/27 07:53:41;;;;;;;1.88;1.77;;;21.90;54.30;;;;;;5052963;28;20070;-83
2023/07/27 07:56:17;;;;;;;1.60;1.40;;;21.90;54.30;;;;;;5052836;28;20039;-84
2023/07/27 07:58:46;;;;;;;2.20;1.23;;;21.80;54.50;;;;;;5053083;28;20068;-80
2023/07/27 08:01:13;;;;;;;2.42;1.65;;;21.80;77.60;;;;;;5052915;28;20025;-80
2023/07/27 08:03:39;;;;;;;2.40;1.50;;;21.90;54.70;;;;;;5052882;28;20021;-80
2023/07/27 08:06:07;;;;;;;1.67;1.05;;;21.90;54.60;;;;;;5052519;28;20360;-78
2023/07/27 08:08:33;;;;;;;1.70;1.00;;;21.90;54.60;;;;;;5052518;28;20052;-77
2023/07/27 08:11:05;;;;;;;3.03;0.90;;;21.90;54.90;;;;;;5052917;28;20150;-83
2023/07/27 08:13:31;;;;;;;3.72;0.93;;;21.90;54.70;;;;;;5051901;28;20049;-80
2023/07/27 08:15:58;;;;;;;1.50;0.70;;;21.90;55.10;;;;;;5057291;28;20029;-74
2023/07/27 08:18:23;;;;;;;1.63;0.88;;;21.90;55.30;;;;;;5052451;28;20025;-81
2023/07/27 08:21:03;;;;;;;2.45;0.77;;;21.90;55.20;;;;;;5051865;28;20033;-80
2023/07/27 08:23:29;;;;;;;1.02;0.63;;;21.90;55.00;;;;;;5052370;28;20345;-85
2023/07/27 08:25:56;;;;;;;0.90;0.70;;;21.90;55.20;;;;;;5053228;28;20029;-86
2023/07/27 08:28:22;;;;;;;1.42;0.50;;;21.90;55.30;;;;;;5053568;28;20029;-85
2023/07/27 08:30:48;;;;;;;3.15;0.60;;;21.90;55.90;;;;;;5054333;28;20082;-85
2023/07/27 08:33:14;;;;;;;2.15;0.60;;;21.90;55.30;;;;;;5055529;28;20422;-78
2023/07/27 08:35:40;;;;;;;0.57;0.43;;;21.90;55.30;;;;;;5054156;28;20143;-81
2023/07/27 08:38:06;;;;;;;0.70;0.52;;;21.90;55.40;;;;;;5052674;28;20509;-77
2023/07/27 08:40:32;;;;;;;0.75;0.65;;;21.90;55.30;;;;;;5053603;28;20021;-78
2023/07/27 08:42:59;;;;;;;0.50;0.47;;;21.90;55.40;;;;;;5054024;28;20078;-78
2023/07/27 08:45:25;;;;;;;0.60;0.50;;;21.90;55.40;;;;;;5052719;28;20103;-77
2023/07/27 08:47:53;;;;;;;0.93;0.60;;;22.00;55.00;;;;;;5051683;28;20017;-80
2023/07/27 08:50:20;;;;;;;1.17;0.43;;;21.90;55.60;;;;;;5053052;28;20033;-79
2023/07/27 08:52:46;;;;;;;1.85;0.85;;;22.00;55.60;;;;;;5054057;28;20052;-79
2023/07/27 08:55:13;;;;;;;2.35;0.45;;;22.00;55.40;;;;;;5053271;28;20074;-79
2023/07/27 08:57:39;;;;;;;0.60;0.60;;;22.00;55.70;;;;;;5053584;28;20053;-78
2023/07/27 09:00:09;;;;;;;0.40;0.40;;;22.00;55.70;;;;;;5053695;28;20041;-84
2023/07/27 09:02:35;;;;;;;1.63;0.50;;;22.00;55.70;;;;;;5054242;28;20071;-85
2023/07/27 09:05:01;;;;;;;0.60;0.50;;;22.00;55.70;;;;;;5053931;28;20067;-82
2023/07/27 09:07:28;;;;;;;1.30;0.50;;;22.00;55.80;;;;;;5053309;28;20025;-78
2023/07/27 09:09:54;;;;;;;0.63;0.47;;;22.00;55.60;;;;;;5053074;28;20069;-81
2023/07/27 09:12:24;;;;;;;0.60;0.55;;;22.00;55.60;;;;;;5053565;28;20029;-81
2023/07/27 09:14:50;;;;;;;0.70;0.60;;;22.00;55.80;;;;;;5053204;28;20049;-81
2023/07/27 09:17:16;;;;;;;1.48;0.70;;;22.00;56.00;;;;;;5053418;28;20276;-81
2023/07/27 09:19:43;;;;;;;0.40;0.40;;;22.00;55.80;;;;;;5053302;28;20029;-81
2023/07/27 09:22:11;;;;;;;1.27;0.60;;;22.00;56.00;;;;;;5053494;28;20032;-78
2023/07/27 09:24:39;;;;;;;1.20;0.50;;;22.00;56.20;;;;;;5053329;28;20116;-78
2023/07/27 09:27:10;;;;;;;0.65;0.57;;;22.00;56.10;;;;;;5052206;28;20067;-78
2023/07/27 09:29:37;;;;;;;0.70;0.57;;;22.00;56.50;;;;;;5051494;28;20487;-73
2023/07/27 09:32:05;;;;;;;3.72;0.80;;;22.00;56.30;;;;;;5054850;28;20039;-80
2023/07/27 09:34:31;;;;;;;0.80;0.45;;;22.00;56.60;;;;;;5055407;28;20031;-74
2023/07/27 09:37:02;;;;;;;0.57;0.50;;;22.00;57.10;;;;;;5055276;28;20025;-76
2023/07/27 09:39:29;;;;;;;1.00;0.43;;;22.10;56.40;;;;;;5055224;28;20025;-73
2023/07/27 09:41:55;;;;;;;0.82;0.50;;;22.10;56.60;;;;;;5055202;28;20025;-72
2023/07/27 09:44:21;;;;;;;1.13;0.60;;;22.10;56.80;;;;;;5055254;28;20024;-75
2023/07/27 09:46:47;;;;;;;2.58;0.52;;;22.10;56.80;;;;;;5055014;28;20501;-74
2023/07/27 09:49:15;;;;;;;0.40;0.40;;;22.10;56.80;;;;;;5055077;28;20025;-74
2023/07/27 09:51:41;;;;;;;0.57;0.57;;;22.10;56.90;;;;;;5053610;28;20018;-73
2023/07/27 09:54:07;;;;;;;0.60;0.25;;;22.10;56.80;;;;;;5054862;28;20064;-76
2023/07/27 09:56:33;;;;;;;0.57;0.57;;;22.10;56.80;;;;;;5054904;28;20051;-72
2023/07/27 09:58:59;;;;;;;0.68;0.30;;;22.30;56.80;;;;;;5054748;28;20029;-73
2023/07/27 10:01:28;;;;;;;2.95;0.68;;;22.40;77.70;;;;;;5054714;28;20040;-74
2023/07/27 10:04:00;;;;;;;1.77;0.50;;;22.20;56.90;;;;;;5054829;28;20024;-73
2023/07/27 10:06:27;;;;;;;0.38;0.38;;;22.20;57.00;;;;;;5054726;28;20025;-75
2023/07/27 10:08:54;;;;;;;0.55;0.38;;;22.20;57.20;;;;;;5053844;28;20481;-75
2023/07/27 10:11:50;;;;;;;0.90;0.30;;;22.20;57.10;;;;;;5054705;28;20079;-72
2023/07/27 10:14:17;;;;;;;1.63;0.40;;;22.20;57.30;;;;;;5053617;28;20052;-73
2023/07/27 10:17:03;;;;;;;4.53;0.70;;;22.20;57.60;;;;;;5054668;28;20421;-74
2023/07/27 10:19:52;;;;;;;3.20;0.40;;;22.30;57.60;;;;;;5054710;28;20017;-72
2023/07/27 10:22:19;;;;;;;1.58;0.40;;;22.90;58.90;;;;;;5054611;28;20029;-74
2023/07/27 10:24:51;;;;;;;2.38;0.50;;;22.30;59.20;;;;;;5054582;28;20434;-75
2023/07/27 10:27:21;;;;;;;2.08;0.45;;;22.30;59.30;;;;;;5054359;28;20025;-75
2023/07/27 10:29:51;;;;;;;0.38;0.30;;;22.30;59.40;;;;;;5054477;28;20021;-75
2023/07/27 10:32:16;;;;;;;1.05;0.40;;;22.30;59.60;;;;;;5054387;28;20017;-76
2023/07/27 10:34:42;;;;;;;2.15;0.60;;;22.30;60.00;;;;;;5054607;28;20078;-79
2023/07/27 10:37:10;;;;;;;0.30;0.30;;;22.40;60.00;;;;;;5053633;28;20080;-77
2023/07/27 10:39:41;;;;;;;0.68;0.28;;;22.40;60.30;;;;;;5054633;28;20025;-78
2023/07/27 10:42:09;;;;;;;0.25;0.20;;;22.40;60.90;;;;;;5053723;28;20025;-77
2023/07/27 10:44:55;;;;;;;0.45;0.30;;;22.30;60.50;;;;;;5054282;28;20176;-76
2023/07/27 10:47:37;;;;;;;0.30;0.20;;;23.80;61.90;;;;;;5054084;28;20028;-78
2023/07/27 10:50:03;;;;;;;0.45;0.30;;;22.40;60.80;;;;;;5054020;28;20067;-73
2023/07/27 10:52:34;;;;;;;0.20;0.20;;;22.40;60.60;;;;;;5053913;28;20124;-72
2023/07/27 10:55:00;;;;;;;0.30;0.20;;;22.40;60.60;;;;;;5053910;28;20082;-73
2023/07/27 10:57:28;;;;;;;3.65;0.30;;;22.40;60.40;;;;;;5053879;28;20048;-72
2023/07/27 10:59:53;;;;;;;0.32;0.20;;;22.40;60.40;;;;;;5053810;28;20450;-73
2023/07/27 11:02:23;;;;;;;3.08;0.32;;;22.40;60.30;;;;;;5053555;28;20027;-74
2023/07/27 11:04:51;;;;;;;4.05;0.50;;;22.40;60.30;;;;;;5052481;28;20108;-75
2023/07/27 11:07:32;;;;;;;3.30;0.32;;;22.40;60.30;;;;;;5054123;28;20079;-74
2023/07/27 11:10:01;;;;;;;2.75;0.38;;;22.40;60.10;;;;;;5053672;28;20130;-74
2023/07/27 11:12:27;;;;;;;4.68;0.40;;;22.40;60.60;;;;;;5053782;28;20018;-76
2023/07/27 11:14:53;;;;;;;2.83;0.30;;;22.40;60.20;;;;;;5053203;28;20434;-75
2023/07/27 11:17:19;;;;;;;1.83;0.40;;;22.40;60.20;;;;;;5053298;28;20510;-73
2023/07/27 11:19:46;;;;;;;4.65;0.20;;;22.40;60.20;;;;;;5053428;28;20025;-73
2023/07/27 11:22:12;;;;;;;1.50;0.60;;;22.50;60.10;;;;;;5053472;28;20044;-73
2023/07/27 11:24:39;;;;;;;11.30;0.88;;;22.40;60.10;;;;;;5053307;28;20518;-75
2023/07/27 11:27:07;;;;;;;1.50;0.30;;;22.50;60.10;;;;;;5053477;28;20357;-83
2023/07/27 11:29:33;;;;;;;2.70;0.20;;;22.50;60.10;;;;;;5053015;28;20107;-81
2023/07/27 11:32:00;;;;;;;4.03;0.40;;;22.40;60.00;;;;;;5053636;28;20032;-81
2023/07/27 11:34:28;;;;;;;1.33;0.17;;;21.20;59.20;;;;;;5053376;28;20033;-81
2023/07/27 11:36:56;;;;;;;0.45;0.15;;;22.50;60.10;;;;;;5053086;28;20119;-82
2023/07/27 11:39:23;;;;;;;1.73;0.20;;;22.50;60.10;;;;;;5053221;28;20108;-80
2023/07/27 11:41:50;;;;;;;2.95;0.20;;;22.50;60.60;;;;;;5053325;28;20048;-84
2023/07/27 11:44:19;;;;;;;0.90;0.10;;;22.50;60.50;;;;;;5053070;28;20014;-81
2023/07/27 11:46:50;;;;;;;1.02;0.25;;;22.50;60.50;;;;;;5052930;28;20033;-81
2023/07/27 11:49:18;;;;;;;0.95;0.25;;;22.50;60.60;;;;;;5052866;28;20058;-81
2023/07/27 11:51:45;;;;;;;0.45;0.20;;;22.50;60.50;;;;;;5052823;28;20028;-79
2023/07/27 11:54:23;;;;;;;0.50;0.20;;;22.50;60.70;;;;;;5051758;28;20028;-80
2023/07/27 11:56:52;;;;;;;0.17;0.17;;;22.50;60.50;;;;;;5052716;28;20036;-78
2023/07/27 11:59:17;;;;;;;0.30;0.20;;;22.50;60.50;;;;;;5052739;28;20049;-77
2023/07/27 12:01:44;;;;;;;1.77;0.20;;;22.50;60.50;;;;;;5052145;28;20029;-81
2023/07/27 12:04:11;;;;;;;1.88;0.20;;;22.50;60.70;;;;;;5052926;28;20024;-81
2023/07/27 12:06:37;;;;;;;1.25;0.20;;;22.50;60.90;;;;;;5052702;28;20494;-81
2023/07/27 12:09:05;;;;;;;0.85;0.25;;;22.50;60.60;;;;;;5052938;28;20134;-79
2023/07/27 12:11:31;;;;;;;0.88;0.20;;;22.50;60.80;;;;;;5052600;28;20025;-83
2023/07/27 12:13:56;;;;;;;0.47;0.20;;;22.50;61.00;;;;;;5052088;28;20064;-79
2023/07/27 12:16:22;;;;;;;0.90;0.30;;;22.50;60.90;;;;;;5052448;28;20037;-81
2023/07/27 12:18:48;;;;;;;3.40;0.22;;;22.50;60.60;;;;;;5053063;28;20207;-77
2023/07/27 12:21:14;;;;;;;1.23;0.20;;;21.70;60.30;;;;;;5052354;28;20154;-81
2023/07/27 12:23:39;;;;;;;1.73;0.40;;;22.50;60.80;;;;;;5052088;28;20028;-76
2023/07/27 12:26:09;;;;;;;1.10;0.30;;;22.50;61.00;;;;;;5052793;28;20025;-80
2023/07/27 12:28:35;;;;;;;1.75;0.30;;;22.50;61.00;;;;;;5052459;28;20021;-82
2023/07/27 12:31:01;;;;;;;1.35;0.43;;;22.50;60.80;;;;;;5052143;28;20025;-81
2023/07/27 12:33:28;;;;;;;3.22;0.47;;;22.50;61.20;;;;;;5051986;28;20032;-87
2023/07/27 12:35:54;;;;;;;1.45;0.70;;;22.50;60.90;;;;;;5052145;28;20083;-78
2023/07/27 12:38:20;;;;;;;4.25;0.60;;;22.50;61.00;;;;;;5052234;28;20029;-82
2023/07/27 12:40:48;;;;;;;2.58;0.60;;;22.50;61.60;;;;;;5052198;28;20033;-78
2023/07/27 12:43:14;;;;;;;2.42;0.50;;;22.50;61.10;;;;;;5052127;28;20595;-83
2023/07/27 12:45:39;;;;;;;4.47;1.00;;;22.50;61.00;;;;;;5052322;28;20033;-87
2023/07/27 12:48:05;;;;;;;2.97;0.73;;;22.50;61.10;;;;;;5052009;28;20028;-84